createdAt,value
2022-09-30T00:01:52.020Z,8.69
2022-09-30T00:04:23.682Z,8.72
2022-09-30T00:06:53.810Z,8.66
2022-09-30T00:09:23.815Z,8.69
2022-09-30T00:11:52.600Z,8.68
2022-09-30T00:14:23.466Z,8.61
2022-09-30T00:16:52.210Z,8.62
2022-09-30T00:19:20.699Z,8.63
2022-09-30T00:21:49.131Z,8.57
2022-09-30T00:24:17.497Z,8.55
2022-09-30T00:26:47.287Z,8.51
2022-09-30T00:29:15.659Z,8.52
2022-09-30T00:31:46.940Z,8.42
2022-09-30T00:34:15.315Z,8.42
2022-09-30T00:36:46.462Z,8.32
2022-09-30T00:39:19.109Z,8.26
2022-09-30T00:41:52.493Z,8.22
2022-09-30T00:44:50.682Z,8.26
2022-09-30T00:47:40.148Z,8.61
2022-09-30T00:50:24.090Z,8.87
2022-09-30T00:52:58.066Z,8.81
2022-09-30T00:55:36.538Z,8.87
2022-09-30T00:58:11.143Z,8.93
2022-09-30T01:00:39.641Z,9.00
2022-09-30T01:03:08.546Z,9.00
2022-09-30T01:05:37.729Z,8.77
2022-09-30T01:08:08.499Z,8.65
2022-09-30T01:10:37.627Z,8.48
2022-09-30T01:13:07.746Z,8.37
2022-09-30T01:16:07.138Z,8.40
2022-09-30T01:18:52.657Z,8.37
2022-09-30T01:22:02.050Z,8.45
2022-09-30T01:25:05.320Z,8.51
2022-09-30T01:28:14.333Z,8.49
2022-09-30T01:31:08.347Z,8.49
2022-09-30T01:33:47.147Z,8.51
2022-09-30T01:36:31.348Z,8.46
2022-09-30T01:39:17.938Z,8.44
2022-09-30T01:41:54.726Z,8.41
2022-09-30T01:44:35.579Z,8.43
2022-09-30T01:47:14.933Z,8.40
2022-09-30T01:49:48.587Z,8.43
2022-09-30T01:52:21.964Z,8.53
2022-09-30T01:54:57.415Z,8.55
2022-09-30T01:57:30.238Z,8.49
2022-09-30T02:00:06.314Z,8.38
2022-09-30T02:02:47.126Z,8.51
2022-09-30T02:05:21.582Z,8.46
2022-09-30T02:07:56.030Z,8.49
2022-09-30T02:10:29.199Z,8.31
2022-09-30T02:13:04.507Z,8.32
2022-09-30T02:15:40.967Z,8.28
2022-09-30T02:18:19.863Z,8.20
2022-09-30T02:20:52.779Z,8.42
2022-09-30T02:23:26.964Z,8.46
2022-09-30T02:26:05.975Z,8.56
2022-09-30T02:28:38.263Z,8.59
2022-09-30T02:31:10.432Z,8.32
2022-09-30T02:33:43.655Z,8.10
2022-09-30T02:36:18.855Z,7.91
2022-09-30T02:38:55.464Z,7.86
2022-09-30T02:41:27.578Z,7.84
2022-09-30T02:43:56.981Z,7.68
2022-09-30T02:46:36.030Z,7.66
2022-09-30T02:49:11.560Z,7.57
2022-09-30T02:51:46.793Z,7.48
2022-09-30T02:54:23.058Z,7.41
2022-09-30T02:56:58.590Z,7.38
2022-09-30T02:59:28.751Z,7.42
2022-09-30T03:01:57.209Z,7.31
2022-09-30T03:04:30.498Z,7.29
2022-09-30T03:06:59.198Z,7.33
2022-09-30T03:09:29.073Z,7.32
2022-09-30T03:12:10.372Z,7.22
2022-09-30T03:15:02.295Z,7.17
2022-09-30T03:18:00.410Z,7.14
2022-09-30T03:20:57.733Z,7.14
2022-09-30T03:23:52.633Z,7.05
2022-09-30T03:26:37.743Z,6.92
2022-09-30T03:29:17.443Z,6.95
2022-09-30T03:31:59.080Z,6.84
2022-09-30T03:34:35.038Z,6.88
2022-09-30T03:37:17.444Z,6.83
2022-09-30T03:39:58.427Z,6.82
2022-09-30T03:42:32.202Z,6.83
2022-09-30T03:45:08.497Z,6.84
2022-09-30T03:47:46.304Z,6.85
2022-09-30T03:50:21.181Z,6.77
2022-09-30T03:52:51.651Z,6.81
2022-09-30T03:55:22.541Z,6.80
2022-09-30T03:57:51.309Z,6.83
2022-09-30T04:00:20.131Z,6.92
2022-09-30T04:02:48.508Z,6.90
2022-09-30T04:05:17.197Z,6.91
2022-09-30T04:07:45.998Z,6.90
2022-09-30T04:10:15.937Z,6.87
2022-09-30T04:12:44.303Z,6.79
2022-09-30T04:15:12.862Z,6.82
2022-09-30T04:17:41.148Z,6.75
2022-09-30T04:20:10.113Z,6.77
2022-09-30T04:22:38.490Z,6.71
2022-09-30T04:25:09.005Z,6.77
2022-09-30T04:27:39.395Z,6.77
2022-09-30T04:30:08.846Z,6.71
2022-09-30T04:32:37.270Z,6.72
2022-09-30T04:35:07.039Z,6.70
2022-09-30T04:37:35.472Z,6.73
2022-09-30T04:40:03.992Z,6.75
2022-09-30T04:42:33.035Z,6.73
2022-09-30T04:45:03.649Z,6.66
2022-09-30T04:47:32.195Z,6.64
2022-09-30T04:50:00.692Z,6.66
2022-09-30T04:52:29.250Z,6.65
2022-09-30T04:54:58.779Z,6.68
2022-09-30T04:57:27.480Z,6.62
2022-09-30T04:59:55.846Z,6.58
2022-09-30T05:02:25.783Z,6.51
2022-09-30T05:04:55.246Z,6.50
2022-09-30T05:07:23.657Z,6.47
2022-09-30T05:09:53.280Z,6.52
2022-09-30T05:12:21.872Z,6.58
2022-09-30T05:14:50.280Z,6.57
2022-09-30T05:17:18.686Z,6.61
2022-09-30T05:19:48.470Z,6.64
2022-09-30T05:22:16.967Z,6.57
2022-09-30T05:24:45.429Z,6.66
2022-09-30T05:27:13.763Z,6.62
2022-09-30T05:29:42.345Z,6.66
2022-09-30T05:32:10.934Z,6.68
2022-09-30T05:34:39.529Z,6.73
2022-09-30T05:37:10.624Z,6.73
2022-09-30T05:39:39.035Z,6.73
2022-09-30T05:42:10.876Z,6.72
2022-09-30T05:44:41.639Z,6.64
2022-09-30T05:47:11.664Z,6.63
2022-09-30T05:49:41.758Z,6.69
2022-09-30T05:52:11.886Z,6.76
2022-09-30T05:54:40.266Z,6.73
2022-09-30T05:57:08.952Z,6.83
2022-09-30T05:59:37.897Z,6.84
2022-09-30T06:02:06.510Z,6.85
2022-09-30T06:04:34.913Z,6.79
2022-09-30T06:07:05.967Z,6.81
2022-09-30T06:09:39.670Z,6.91
2022-09-30T06:12:08.307Z,6.93
2022-09-30T06:14:36.821Z,6.98
2022-09-30T06:17:06.699Z,6.98
2022-09-30T06:19:35.101Z,6.71
2022-09-30T06:22:03.484Z,6.69
2022-09-30T06:24:32.039Z,6.77
2022-09-30T06:27:01.955Z,6.74
2022-09-30T06:29:30.456Z,6.74
2022-09-30T06:31:58.873Z,6.80
2022-09-30T06:34:27.333Z,6.85
2022-09-30T06:36:55.752Z,6.86
2022-09-30T06:39:24.322Z,6.80
2022-09-30T06:41:52.904Z,6.85
2022-09-30T06:44:28.069Z,6.87
2022-09-30T06:46:56.520Z,6.80
2022-09-30T06:49:25.294Z,6.63
2022-09-30T06:51:54.147Z,6.74
2022-09-30T06:54:22.581Z,6.83
2022-09-30T06:56:53.481Z,6.93
2022-09-30T06:59:22.367Z,6.93
2022-09-30T07:01:52.236Z,7.02
2022-09-30T07:04:20.931Z,7.07
2022-09-30T07:06:49.351Z,7.12
2022-09-30T07:09:20.815Z,7.09
2022-09-30T07:11:49.919Z,7.12
2022-09-30T07:14:18.311Z,7.17
2022-09-30T07:16:46.725Z,7.31
2022-09-30T07:19:17.751Z,7.43
2022-09-30T07:21:46.079Z,7.53
2022-09-30T07:24:15.040Z,7.70
2022-09-30T07:26:45.184Z,7.76
2022-09-30T07:29:14.111Z,7.92
2022-09-30T07:31:42.851Z,7.96
2022-09-30T07:34:11.455Z,8.16
2022-09-30T07:36:42.353Z,8.21
2022-09-30T07:39:12.531Z,8.24
2022-09-30T07:41:42.011Z,8.35
2022-09-30T07:44:15.214Z,8.34
2022-09-30T07:46:45.412Z,8.29
2022-09-30T07:49:24.767Z,8.55
2022-09-30T07:51:57.436Z,8.74
2022-09-30T07:54:30.290Z,9.18
2022-09-30T07:57:16.183Z,10.17
2022-09-30T07:59:45.020Z,10.93
2022-09-30T08:02:17.233Z,11.98
2022-09-30T08:04:46.519Z,12.67
2022-09-30T08:07:18.561Z,13.25
2022-09-30T08:09:47.175Z,14.04
2022-09-30T08:12:15.639Z,14.63
2022-09-30T08:14:44.851Z,14.32
2022-09-30T08:17:14.018Z,14.33
2022-09-30T08:19:44.777Z,14.09
2022-09-30T08:22:14.256Z,14.00
2022-09-30T08:24:44.154Z,13.85
2022-09-30T08:27:12.551Z,14.47
2022-09-30T08:29:58.355Z,14.37
2022-09-30T08:32:31.564Z,13.83
2022-09-30T08:34:59.930Z,14.29
2022-09-30T08:37:28.404Z,14.51
2022-09-30T08:39:58.278Z,14.75
2022-09-30T08:42:52.782Z,15.55
2022-09-30T08:45:36.331Z,15.93
2022-09-30T08:48:23.689Z,15.98
2022-09-30T08:51:03.433Z,16.26
2022-09-30T08:53:37.919Z,15.70
2022-09-30T08:56:08.470Z,15.84
2022-09-30T08:58:40.464Z,15.99
2022-09-30T09:01:20.899Z,15.96
2022-09-30T09:03:49.356Z,16.25
2022-09-30T09:06:29.041Z,16.09
2022-09-30T09:09:29.945Z,16.28
2022-09-30T09:12:13.749Z,16.41
2022-09-30T09:15:04.950Z,16.68
2022-09-30T09:18:18.780Z,16.99
2022-09-30T09:20:53.872Z,17.52
2022-09-30T09:23:23.215Z,17.02
2022-09-30T09:25:54.690Z,17.30
2022-09-30T09:28:48.130Z,18.08
2022-09-30T09:31:21.212Z,17.73
2022-09-30T09:33:50.200Z,17.80
2022-09-30T09:36:34.549Z,17.37
2022-09-30T09:39:25.825Z,17.61
2022-09-30T09:42:01.335Z,17.40
2022-09-30T09:44:40.779Z,18.08
2022-09-30T09:47:15.214Z,18.16
2022-09-30T09:49:45.560Z,18.78
2022-09-30T09:53:03.201Z,18.59
2022-09-30T09:55:31.640Z,18.61
2022-09-30T09:58:13.892Z,18.32
2022-09-30T10:01:03.274Z,17.88
2022-09-30T10:03:34.925Z,18.63
2022-09-30T10:06:06.865Z,18.78
2022-09-30T10:08:38.622Z,18.84
2022-09-30T10:11:09.510Z,18.72
2022-09-30T10:13:45.628Z,18.37
2022-09-30T10:16:30.768Z,19.02
2022-09-30T10:19:00.265Z,18.82
2022-09-30T10:21:30.154Z,18.77
2022-09-30T10:23:59.920Z,18.96
2022-09-30T10:26:30.029Z,19.09
2022-09-30T10:29:01.222Z,18.96
2022-09-30T10:31:33.887Z,19.04
2022-09-30T10:34:11.530Z,18.21
2022-09-30T10:36:44.720Z,18.79
2022-09-30T10:39:24.716Z,18.81
2022-09-30T10:42:02.689Z,19.34
2022-09-30T10:44:32.099Z,19.42
2022-09-30T10:47:05.836Z,19.28
2022-09-30T10:49:39.094Z,18.99
2022-09-30T10:52:17.886Z,18.80
2022-09-30T10:54:51.771Z,18.66
2022-09-30T10:57:25.320Z,18.24
2022-09-30T11:00:01.098Z,19.02
2022-09-30T11:02:39.375Z,19.71
2022-09-30T11:05:18.058Z,19.50
2022-09-30T11:07:53.585Z,19.73
2022-09-30T11:10:37.744Z,19.25
2022-09-30T11:13:13.599Z,19.74
2022-09-30T11:15:58.895Z,19.52
2022-09-30T11:18:36.834Z,19.05
2022-09-30T11:21:13.401Z,17.95
2022-09-30T11:23:47.639Z,17.70
2022-09-30T11:26:32.989Z,18.08
2022-09-30T11:29:29.015Z,18.45
2022-09-30T11:32:07.399Z,18.21
2022-09-30T11:34:53.466Z,18.16
2022-09-30T11:37:35.776Z,18.55
2022-09-30T11:40:33.179Z,19.21
2022-09-30T11:43:14.025Z,19.26
2022-09-30T11:46:11.174Z,19.64
2022-09-30T11:48:57.061Z,19.56
2022-09-30T11:51:36.062Z,19.84
2022-09-30T11:54:23.660Z,19.80
2022-09-30T11:56:58.964Z,19.91
2022-09-30T11:59:31.999Z,19.30
2022-09-30T12:02:04.488Z,18.54
2022-09-30T12:04:38.071Z,18.56
2022-09-30T12:07:13.743Z,18.30
2022-09-30T12:09:46.388Z,17.78
2022-09-30T12:12:19.018Z,17.58
2022-09-30T12:14:51.379Z,17.69
2022-09-30T12:17:27.917Z,17.17
2022-09-30T12:19:59.575Z,17.36
2022-09-30T12:22:36.811Z,17.60
2022-09-30T12:25:15.181Z,18.01
2022-09-30T12:27:50.977Z,17.96
2022-09-30T12:30:23.953Z,17.78
2022-09-30T12:33:28.389Z,17.97
2022-09-30T12:36:36.861Z,18.35
2022-09-30T12:39:45.304Z,18.50
2022-09-30T12:42:59.619Z,18.74
2022-09-30T12:46:03.426Z,18.76
2022-09-30T12:48:39.123Z,18.53
2022-09-30T12:51:08.886Z,18.58
2022-09-30T12:53:40.384Z,18.59
2022-09-30T12:56:14.331Z,18.42
2022-09-30T12:58:46.250Z,18.32
2022-09-30T13:01:18.749Z,18.00
2022-09-30T13:03:53.452Z,17.99
2022-09-30T13:06:23.202Z,18.14
2022-09-30T13:09:22.400Z,18.17
2022-09-30T13:12:27.115Z,17.73
2022-09-30T13:15:40.964Z,17.65
2022-09-30T13:19:02.511Z,17.60
2022-09-30T13:21:33.765Z,17.83
2022-09-30T13:24:03.581Z,18.02
2022-09-30T13:26:48.571Z,17.91
2022-09-30T13:29:41.383Z,17.84
2022-09-30T13:32:12.889Z,17.83
2022-09-30T13:35:33.406Z,17.83
2022-09-30T13:38:35.938Z,17.67
2022-09-30T13:41:15.775Z,17.80
2022-09-30T13:44:03.294Z,17.74
2022-09-30T13:46:38.296Z,17.95
2022-09-30T13:49:14.334Z,17.74
2022-09-30T13:51:43.683Z,17.68
2022-09-30T13:54:25.748Z,17.63
2022-09-30T13:56:55.758Z,17.47
2022-09-30T13:59:41.708Z,17.39
2022-09-30T14:02:48.623Z,17.26
2022-09-30T14:05:36.222Z,17.26
2022-09-30T14:08:28.192Z,17.39
2022-09-30T14:11:13.069Z,17.47
2022-09-30T14:13:56.375Z,17.38
2022-09-30T14:17:06.737Z,17.20
2022-09-30T14:19:58.351Z,17.25
2022-09-30T14:22:30.085Z,17.16
2022-09-30T14:24:59.658Z,17.14
2022-09-30T14:27:48.260Z,17.13
2022-09-30T14:30:20.435Z,17.06
2022-09-30T14:32:52.820Z,17.12
2022-09-30T14:35:25.121Z,17.03
2022-09-30T14:37:56.383Z,16.98
2022-09-30T14:40:28.785Z,17.06
2022-09-30T14:43:02.934Z,17.02
2022-09-30T14:45:34.662Z,17.03
2022-09-30T14:48:08.740Z,17.08
2022-09-30T14:50:45.182Z,16.95
2022-09-30T14:53:28.061Z,16.95
2022-09-30T14:55:58.656Z,17.05
2022-09-30T14:58:30.528Z,17.03
2022-09-30T15:01:08.260Z,16.97
2022-09-30T15:03:40.802Z,16.87
2022-09-30T15:06:24.322Z,16.88
2022-09-30T15:09:01.800Z,16.87
2022-09-30T15:11:31.864Z,16.83
2022-09-30T15:14:06.504Z,16.79
2022-09-30T15:16:35.877Z,16.88
2022-09-30T15:19:04.701Z,16.88
2022-09-30T15:21:35.283Z,16.71
2022-09-30T15:24:04.212Z,16.69
2022-09-30T15:26:34.979Z,16.57
2022-09-30T15:29:05.571Z,16.70
2022-09-30T15:31:34.114Z,16.80
2022-09-30T15:34:05.916Z,16.72
2022-09-30T15:36:37.783Z,16.70
2022-09-30T15:39:08.372Z,16.61
2022-09-30T15:41:41.994Z,16.62
2022-09-30T15:44:19.880Z,16.55
2022-09-30T15:47:07.159Z,16.64
2022-09-30T15:49:47.884Z,16.54
2022-09-30T15:52:33.473Z,16.53
2022-09-30T15:55:01.974Z,16.47
2022-09-30T15:57:54.325Z,16.38
2022-09-30T16:00:36.430Z,16.33
2022-09-30T16:03:28.941Z,16.30
2022-09-30T16:06:08.978Z,16.34
2022-09-30T16:08:45.533Z,16.33
2022-09-30T16:11:22.875Z,16.29
2022-09-30T16:13:52.501Z,16.28
2022-09-30T16:16:23.567Z,16.22
2022-09-30T16:18:55.235Z,16.19
2022-09-30T16:21:44.163Z,16.18
2022-09-30T16:24:49.101Z,16.14
2022-09-30T16:27:31.398Z,16.03
2022-09-30T16:30:01.516Z,15.94
2022-09-30T16:32:34.099Z,16.03
2022-09-30T16:35:02.612Z,15.98
2022-09-30T16:37:31.140Z,15.81
2022-09-30T16:40:16.639Z,15.81
2022-09-30T16:42:45.047Z,15.78
2022-09-30T16:45:15.002Z,15.67
2022-09-30T16:47:44.304Z,15.65
2022-09-30T16:50:26.711Z,15.57
2022-09-30T16:52:55.441Z,15.54
2022-09-30T16:55:26.247Z,15.52
2022-09-30T16:57:57.296Z,15.44
2022-09-30T17:00:26.319Z,15.45
2022-09-30T17:02:54.826Z,15.41
2022-09-30T17:05:25.492Z,15.33
2022-09-30T17:07:55.678Z,15.23
2022-09-30T17:10:29.023Z,15.21
2022-09-30T17:13:00.327Z,15.16
2022-09-30T17:15:31.216Z,15.08
2022-09-30T17:18:00.458Z,15.01
2022-09-30T17:20:28.860Z,14.92
2022-09-30T17:22:57.268Z,14.88
2022-09-30T17:25:27.095Z,14.85
2022-09-30T17:27:56.352Z,14.79
2022-09-30T17:30:24.693Z,14.84
2022-09-30T17:32:54.445Z,14.82
2022-09-30T17:35:22.950Z,14.83
2022-09-30T17:37:51.345Z,14.78
2022-09-30T17:40:37.400Z,14.69
2022-09-30T17:43:11.170Z,14.63
2022-09-30T17:45:43.187Z,14.55
2022-09-30T17:48:13.167Z,14.58
2022-09-30T17:50:45.365Z,14.53
2022-09-30T17:53:16.985Z,14.45
2022-09-30T17:55:47.900Z,14.56
2022-09-30T17:58:19.288Z,14.49
2022-09-30T18:00:47.964Z,14.40
2022-09-30T18:03:16.439Z,14.38
2022-09-30T18:05:45.599Z,14.34
2022-09-30T18:08:14.259Z,14.30
2022-09-30T18:10:42.613Z,14.27
2022-09-30T18:13:11.564Z,14.23
2022-09-30T18:15:41.413Z,14.17
2022-09-30T18:18:09.738Z,14.12
2022-09-30T18:20:38.340Z,14.03
2022-09-30T18:23:06.672Z,14.01
2022-09-30T18:25:35.215Z,13.98
2022-09-30T18:28:03.824Z,14.04
2022-09-30T18:30:32.301Z,14.05
2022-09-30T18:33:03.111Z,14.03
2022-09-30T18:35:31.679Z,13.96
2022-09-30T18:38:00.263Z,13.91
2022-09-30T18:40:30.756Z,13.79
2022-09-30T18:43:02.515Z,13.69
2022-09-30T18:45:34.632Z,13.65
2022-09-30T18:48:04.611Z,13.58
2022-09-30T18:50:34.536Z,13.52
2022-09-30T18:53:09.571Z,13.46
2022-09-30T18:55:39.202Z,13.45
2022-09-30T18:58:07.767Z,13.37
2022-09-30T19:00:37.114Z,13.39
2022-09-30T19:03:10.269Z,13.39
2022-09-30T19:05:38.698Z,13.45
2022-09-30T19:08:07.329Z,13.55
2022-09-30T19:10:35.917Z,13.56
2022-09-30T19:13:04.268Z,13.50
2022-09-30T19:15:32.829Z,13.35
2022-09-30T19:18:01.588Z,13.35
2022-09-30T19:20:31.429Z,13.34
2022-09-30T19:22:59.772Z,13.26
2022-09-30T19:25:28.213Z,13.22
2022-09-30T19:27:57.298Z,13.22
2022-09-30T19:30:25.667Z,13.21
2022-09-30T19:32:59.386Z,13.13
2022-09-30T19:35:39.949Z,13.29
2022-09-30T19:38:09.598Z,13.28
2022-09-30T19:40:38.012Z,13.21
2022-09-30T19:43:06.947Z,13.20
2022-09-30T19:45:35.767Z,13.19
2022-09-30T19:48:04.347Z,13.12
2022-09-30T19:50:34.729Z,13.13
2022-09-30T19:53:03.046Z,13.05
2022-09-30T19:55:39.689Z,12.95
2022-09-30T19:58:11.021Z,12.91
2022-09-30T20:00:39.758Z,12.89
2022-09-30T20:03:08.250Z,13.01
2022-09-30T20:05:37.990Z,12.98
2022-09-30T20:08:06.451Z,12.88
2022-09-30T20:10:34.881Z,12.77
2022-09-30T20:13:03.273Z,12.73
2022-09-30T20:15:46.350Z,12.65
2022-09-30T20:18:15.137Z,12.61
2022-09-30T20:20:45.944Z,12.55
2022-09-30T20:23:14.940Z,12.59
2022-09-30T20:25:43.852Z,12.48
2022-09-30T20:28:12.362Z,12.47
2022-09-30T20:30:45.504Z,12.36
2022-09-30T20:33:19.423Z,12.32
2022-09-30T20:35:49.439Z,12.27
2022-09-30T20:38:25.160Z,12.35
2022-09-30T20:40:57.337Z,12.32
2022-09-30T20:43:28.946Z,12.49
2022-09-30T20:46:00.382Z,12.40
2022-09-30T20:48:33.307Z,12.32
2022-09-30T20:51:06.289Z,12.28
2022-09-30T20:53:39.473Z,12.24
2022-09-30T20:56:09.293Z,12.47
2022-09-30T20:58:38.699Z,12.33
2022-09-30T21:01:10.314Z,12.32
2022-09-30T21:03:40.527Z,12.45
2022-09-30T21:06:11.770Z,12.47
2022-09-30T21:08:42.975Z,12.42
2022-09-30T21:11:12.365Z,12.31
2022-09-30T21:13:43.971Z,12.33
2022-09-30T21:16:16.156Z,12.34
2022-09-30T21:18:45.878Z,12.30
2022-09-30T21:21:18.782Z,12.29
2022-09-30T21:23:47.352Z,12.27
2022-09-30T21:26:18.531Z,12.15
2022-09-30T21:28:49.385Z,12.12
2022-09-30T21:31:21.427Z,12.10
2022-09-30T21:33:54.255Z,12.05
2022-09-30T21:36:24.699Z,11.97
2022-09-30T21:38:54.949Z,11.90
2022-09-30T21:41:23.760Z,11.94
2022-09-30T21:43:52.213Z,11.85
2022-09-30T21:46:20.606Z,11.94
2022-09-30T21:48:48.949Z,11.87
2022-09-30T21:51:18.018Z,11.83
2022-09-30T21:53:48.788Z,11.85
2022-09-30T21:56:17.159Z,11.79
2022-09-30T21:58:45.605Z,11.77
2022-09-30T22:01:14.109Z,11.73
2022-09-30T22:03:42.574Z,11.75
2022-09-30T22:06:12.630Z,11.67
2022-09-30T22:08:41.614Z,11.61
2022-09-30T22:11:14.107Z,11.61
2022-09-30T22:13:45.219Z,11.62
2022-09-30T22:16:15.833Z,11.53
2022-09-30T22:18:44.774Z,11.44
2022-09-30T22:21:15.425Z,11.27
2022-09-30T22:23:44.290Z,11.15
2022-09-30T22:26:16.987Z,11.18
2022-09-30T22:28:46.207Z,11.15
2022-09-30T22:31:17.743Z,11.11
2022-09-30T22:34:04.083Z,11.12
2022-09-30T22:36:50.255Z,11.14
2022-09-30T22:39:19.170Z,11.04
2022-09-30T22:41:49.182Z,10.97
2022-09-30T22:44:17.970Z,10.92
2022-09-30T22:46:46.496Z,10.92
2022-09-30T22:49:15.097Z,10.85
2022-09-30T22:51:43.510Z,10.86
2022-09-30T22:54:12.299Z,10.84
2022-09-30T22:56:40.754Z,10.90
2022-09-30T22:59:10.571Z,10.93
2022-09-30T23:01:39.102Z,10.91
2022-09-30T23:04:08.105Z,10.84
2022-09-30T23:06:36.533Z,10.86
2022-09-30T23:09:06.274Z,10.79
2022-09-30T23:11:35.950Z,10.72
2022-09-30T23:14:04.812Z,10.75
2022-09-30T23:16:34.736Z,10.83
2022-09-30T23:19:03.412Z,10.98
2022-09-30T23:21:33.647Z,10.93
2022-09-30T23:24:03.131Z,10.88
2022-09-30T23:26:32.527Z,10.85
2022-09-30T23:29:04.163Z,10.78
2022-09-30T23:31:34.601Z,10.82
2022-09-30T23:34:04.851Z,10.83
2022-09-30T23:36:36.533Z,10.76
2022-09-30T23:39:09.388Z,10.72
2022-09-30T23:41:37.910Z,10.73
2022-09-30T23:44:06.795Z,10.79
2022-09-30T23:46:36.531Z,10.75
2022-09-30T23:49:04.989Z,10.95
2022-09-30T23:51:34.450Z,10.96
2022-09-30T23:54:03.391Z,10.94
2022-09-30T23:56:32.167Z,11.00
2022-09-30T23:59:00.522Z,10.90
